Time;durP1;ratioP1;P1;durP2;ratioP2;P2;SDS_P1;SDS_P2;PMS_P1;PMS_P2;Temp;Humidity;BMP_temperature;BMP_pressure;BME280_temperature;BME280_humidity;BME280_pressure;Samples;Min_cycle;Max_cycle;Signal;HPM_P1;HPM_P2
2023/05/04 00:00:18;;;;;;;1.15;0.88;;;;;;;10.51;80.17;100172.31;5115053;28;20069;-69
2023/05/04 00:02:47;;;;;;;1.40;1.30;;;;;;;10.48;79.98;100167.22;5115357;28;20397;-69
2023/05/04 00:05:16;;;;;;;1.85;1.58;;;;;;;10.51;79.74;100167.22;5115116;28;20466;-69
2023/05/04 00:07:46;;;;;;;1.05;0.98;;;;;;;10.49;79.74;100168.91;5114931;28;20051;-70
2023/05/04 00:10:16;;;;;;;1.42;1.25;;;;;;;10.50;80.02;100173.19;5114236;28;20054;-70
2023/05/04 00:12:46;;;;;;;2.08;1.75;;;;;;;10.44;80.40;100175.66;5114744;28;20066;-70
2023/05/04 00:15:15;;;;;;;2.13;0.82;;;;;;;10.43;80.10;100173.97;5114674;28;20047;-70
2023/05/04 00:17:44;;;;;;;1.75;1.20;;;;;;;10.44;80.16;100174.81;5114715;28;20051;-69
2023/05/04 00:20:13;;;;;;;2.20;1.27;;;;;;;10.46;80.86;100162.94;5114948;28;20104;-69
2023/05/04 00:22:43;;;;;;;1.33;1.23;;;;;;;10.48;80.46;100167.22;5114634;28;20050;-71
2023/05/04 00:25:11;;;;;;;0.60;0.60;;;;;;;10.47;80.62;100162.94;5114505;28;20071;-69
2023/05/04 00:27:42;;;;;;;2.13;1.17;;;;;;;10.52;80.65;100157.88;5114540;28;20341;-68
2023/05/04 00:30:12;;;;;;;1.27;0.95;;;;;;;10.47;80.19;100165.50;5114523;28;20105;-68
2023/05/04 00:32:41;;;;;;;;;;;;;;;10.51;80.73;100159.56;5115130;28;20051;-68
2023/05/04 00:35:10;;;;;;;1.05;1.00;;;;;;;10.50;80.24;100168.09;5114714;28;19919;-70
2023/05/04 00:37:39;;;;;;;1.00;0.95;;;;;;;10.50;80.50;100170.63;5113224;28;20122;-70
2023/05/04 00:40:10;;;;;;;1.63;1.53;;;;;;;10.53;80.83;100160.41;5113324;28;20104;-70
2023/05/04 00:42:39;;;;;;;0.88;0.88;;;;;;;10.51;80.36;100162.13;5113124;28;20044;-70
2023/05/04 00:45:10;;;;;;;27.90;1.37;;;;;;;10.55;80.49;100168.97;5113092;28;20040;-69
2023/05/04 00:47:40;;;;;;;1.30;1.20;;;;;;;10.58;80.76;100168.97;5095879;28;20044;-69
2023/05/04 00:50:10;;;;;;;1.58;1.48;;;;;;;10.62;80.55;100163.06;5115384;28;20086;-69
2023/05/04 00:52:41;;;;;;;0.50;0.50;;;;;;;10.57;80.74;100161.31;5113225;28;20066;-70
2023/05/04 00:55:11;;;;;;;1.15;1.05;;;;;;;10.54;80.47;100157.03;5114120;28;20067;-69
2023/05/04 00:57:41;;;;;;;1.60;1.50;;;;;;;10.59;80.65;100162.16;5112844;28;20048;-68
2023/05/04 01:00:12;;;;;;;;;;;;;;;10.58;80.68;100158.75;5114463;28;20126;-70
2023/05/04 01:02:41;;;;;;;0.85;0.75;;;;;;;10.57;80.71;100162.19;5114107;28;19920;-69
2023/05/04 01:05:12;;;;;;;1.85;1.20;;;;;;;10.58;80.78;100163.88;5112880;28;20135;-69
2023/05/04 01:07:52;;;;;;;0.60;0.60;;;;;;;10.62;80.67;100159.66;5113982;28;20047;-68
2023/05/04 01:10:30;;;;;;;1.55;1.33;;;;;;;10.57;80.36;100163.88;5114083;28;20052;-68
2023/05/04 01:13:04;;;;;;;1.63;1.52;;;;;;;10.55;80.48;100163.88;5113818;28;20421;-67
2023/05/04 01:15:35;;;;;;;1.40;1.30;;;;;;;10.53;81.04;100157.88;5113943;28;20071;-68
2023/05/04 01:18:04;;;;;;;0.77;0.73;;;;;;;10.51;81.16;100164.66;5113852;28;20039;-68
2023/05/04 01:20:33;;;;;;;;;;;;;;;10.53;81.45;100168.06;5114285;28;20078;-68
2023/05/04 01:23:04;;;;;;;1.20;1.10;;;;;;;10.52;81.09;100165.53;5115000;28;19920;-69
2023/05/04 01:25:39;;;;;;;1.40;1.30;;;;;;;10.50;81.39;100164.66;5116909;28;20280;-70
2023/05/04 01:28:14;;;;;;;6.55;1.73;;;;;;;10.55;81.04;100165.56;5117969;28;20044;-70
2023/05/04 01:30:45;;;;;;;1.85;1.73;;;;;;;10.48;81.22;100167.22;5118241;28;20486;-67
2023/05/04 01:33:16;;;;;;;0.80;0.80;;;;;;;10.46;81.24;100168.88;5117880;27;20143;-68
2023/05/04 01:35:45;;;;;;;0.65;0.65;;;;;;;10.52;81.61;100170.63;5117032;28;20062;-68
2023/05/04 01:38:16;;;;;;;1.70;1.60;;;;;;;10.53;81.56;100170.63;5117739;28;20485;-69
2023/05/04 01:40:45;;;;;;;0.60;0.60;;;;;;;10.59;81.72;100165.59;5118105;28;20512;-69
2023/05/04 01:43:14;;;;;;;1.07;1.07;;;;;;;10.59;81.42;100157.06;5117783;28;20048;-66
2023/05/04 01:45:43;;;;;;;1.35;0.98;;;;;;;10.65;81.50;100157.13;5117685;28;20065;-69
2023/05/04 01:48:13;;;;;;;0.70;0.70;;;;;;;10.68;81.16;100159.66;5118085;28;20405;-70
2023/05/04 01:50:42;;;;;;;0.85;0.85;;;;;;;10.72;81.48;100154.59;5117664;28;20036;-70
2023/05/04 01:53:10;;;;;;;1.33;1.23;;;;;;;10.75;81.29;100153.75;5116303;28;20055;-69
2023/05/04 01:55:41;;;;;;;1.43;1.33;;;;;;;10.75;80.75;100157.16;5117847;28;20435;-69
2023/05/04 01:58:09;;;;;;;0.85;0.80;;;;;;;10.74;81.57;100152.06;5116311;28;20047;-69
2023/05/04 02:00:38;;;;;;;0.57;0.57;;;;;;;10.73;81.36;100155.44;5116454;28;20496;-69
2023/05/04 02:03:08;;;;;;;1.05;1.00;;;;;;;10.70;81.08;100143.53;5116804;28;20040;-69
2023/05/04 02:05:37;;;;;;;0.65;0.65;;;;;;;10.74;81.56;100146.97;5117345;28;20065;-67
2023/05/04 02:08:06;;;;;;;0.60;0.60;;;;;;;10.75;81.26;100146.97;5117528;28;20050;-69
2023/05/04 02:10:35;;;;;;;0.40;0.40;;;;;;;10.70;81.37;100148.63;5116318;28;20066;-69
2023/05/04 02:13:05;;;;;;;0.57;0.57;;;;;;;10.69;81.08;100146.06;5117323;28;20047;-69
2023/05/04 02:15:34;;;;;;;0.30;0.30;;;;;;;10.71;81.40;100142.69;5117085;28;20048;-69
2023/05/04 02:18:03;;;;;;;0.70;0.70;;;;;;;10.74;81.75;100145.28;5117461;28;20031;-70
2023/05/04 02:20:32;;;;;;;0.60;0.60;;;;;;;10.77;81.35;100132.50;5116964;28;20043;-69
2023/05/04 02:23:01;;;;;;;1.13;1.03;;;;;;;10.82;81.17;100137.66;5116955;28;20044;-67
2023/05/04 02:25:30;;;;;;;0.68;0.68;;;;;;;10.81;81.64;100135.06;5115709;28;20040;-67
2023/05/04 02:28:00;;;;;;;0.88;0.88;;;;;;;10.73;81.85;100112.91;5116004;28;20063;-70
2023/05/04 02:30:30;;;;;;;0.63;0.60;;;;;;;10.81;81.34;100129.97;5117091;28;20028;-69
2023/05/04 02:32:59;;;;;;;2.67;2.20;;;;;;;10.82;81.74;100137.66;5115038;28;20051;-69
2023/05/04 02:35:28;;;;;;;0.87;0.87;;;;;;;10.87;81.42;100135.13;5116641;28;20047;-70
2023/05/04 02:37:57;;;;;;;1.27;1.17;;;;;;;10.92;81.63;100133.44;5116658;28;20497;-68
2023/05/04 02:40:26;;;;;;;1.25;1.15;;;;;;;10.83;81.81;100133.38;5115451;28;20035;-69
2023/05/04 02:42:55;;;;;;;1.13;1.10;;;;;;;10.81;81.77;100129.97;5116616;28;20126;-68
2023/05/04 02:45:24;;;;;;;1.17;1.10;;;;;;;10.81;82.09;100135.06;5115336;28;20047;-70
2023/05/04 02:47:54;;;;;;;0.63;0.63;;;;;;;10.85;81.92;100136.78;5115340;28;20131;-70
2023/05/04 02:50:23;;;;;;;0.60;0.60;;;;;;;10.83;82.03;100138.50;5116477;28;20056;-68
2023/05/04 02:52:52;;;;;;;0.65;0.65;;;;;;;10.79;81.83;100137.63;5115120;28;20046;-69
2023/05/04 02:55:21;;;;;;;2.43;1.60;;;;;;;10.72;82.03;100139.28;5098209;28;20130;-68
2023/05/04 02:57:49;;;;;;;1.23;1.13;;;;;;;10.67;82.43;100138.41;5115088;28;20057;-69
2023/05/04 03:00:19;;;;;;;1.23;0.80;;;;;;;10.69;82.34;100146.06;5116279;28;20375;-70
2023/05/04 03:02:47;;;;;;;1.02;0.93;;;;;;;10.66;82.59;100141.81;5116125;28;20063;-70
2023/05/04 03:05:18;;;;;;;1.42;1.33;;;;;;;10.68;82.50;100140.09;5115302;28;20043;-70
2023/05/04 03:07:47;;;;;;;1.05;0.95;;;;;;;10.67;82.52;100145.22;5116133;28;20052;-69
2023/05/04 03:10:16;;;;;;;0.63;0.63;;;;;;;10.67;83.02;100142.66;5116682;28;20044;-69
2023/05/04 03:12:45;;;;;;;1.57;1.47;;;;;;;10.69;82.43;100146.94;5115950;28;20482;-69
2023/05/04 03:15:14;;;;;;;0.47;0.47;;;;;;;10.67;83.04;100138.41;5116246;28;20318;-70
2023/05/04 03:17:43;;;;;;;1.55;1.45;;;;;;;10.72;83.05;100146.09;5114796;28;20032;-70
2023/05/04 03:20:13;;;;;;;0.82;0.80;;;;;;;10.74;82.90;100135.06;5114600;28;20524;-69
2023/05/04 03:22:44;;;;;;;0.98;0.98;;;;;;;10.76;82.94;100138.47;5115722;28;20079;-70
2023/05/04 03:25:13;;;;;;;1.42;1.33;;;;;;;10.74;82.61;100135.06;5115808;28;20100;-70
2023/05/04 03:27:42;;;;;;;1.17;1.08;;;;;;;10.76;83.02;100135.91;5114576;28;20047;-69
2023/05/04 03:30:13;;;;;;;1.50;1.40;;;;;;;10.80;82.62;100135.94;5115684;28;20114;-70
2023/05/04 03:32:45;;;;;;;0.88;0.88;;;;;;;10.80;82.30;100130.84;5115642;28;20283;-69
2023/05/04 03:35:14;;;;;;;0.50;0.50;;;;;;;10.78;81.85;100126.56;5114353;28;20067;-68
2023/05/04 03:37:53;;;;;;;1.15;1.05;;;;;;;10.80;81.64;100124.00;5115528;28;20047;-69
2023/05/04 03:40:23;;;;;;;1.77;1.20;;;;;;;10.83;81.36;100133.38;5114284;28;20126;-68
2023/05/04 03:42:54;;;;;;;0.50;0.50;;;;;;;10.81;80.99;100129.97;5115317;28;20053;-70
2023/05/04 03:45:27;;;;;;;0.40;0.40;;;;;;;10.78;80.86;100126.56;5113240;28;20059;-70
2023/05/04 03:47:58;;;;;;;0.45;0.45;;;;;;;10.76;81.15;100123.16;5115586;28;20055;-70
2023/05/04 03:50:28;;;;;;;0.93;0.90;;;;;;;10.78;80.38;100121.47;5115637;28;20386;-69
2023/05/04 03:52:59;;;;;;;0.73;0.73;;;;;;;10.74;80.06;100118.88;5113971;28;20135;-69
2023/05/04 03:55:29;;;;;;;0.50;0.50;;;;;;;10.70;80.44;100118.00;5115366;28;20047;-70
2023/05/04 03:57:58;;;;;;;1.50;1.30;;;;;;;10.73;80.38;100118.03;5115141;28;20061;-69
2023/05/04 04:00:27;;;;;;;;;;;;;;;10.78;79.84;100126.56;5115742;28;20047;-67
2023/05/04 04:03:07;;;;;;;0.50;0.50;;;;;;;10.78;79.63;100121.47;5115357;28;19920;-70
2023/05/04 04:05:37;;;;;;;2.47;1.98;;;;;;;10.80;79.38;100125.72;5116445;28;20572;-70
2023/05/04 04:08:08;;;;;;;0.60;0.60;;;;;;;10.74;79.45;100109.53;5113892;28;20039;-70
2023/05/04 04:10:37;;;;;;;0.77;0.77;;;;;;;10.85;79.53;100121.47;5114896;28;20067;-70
2023/05/04 04:13:06;;;;;;;0.90;0.90;;;;;;;10.85;78.98;100121.47;5114709;28;20397;-69
2023/05/04 04:15:35;;;;;;;1.63;1.52;;;;;;;10.88;79.29;100126.59;5114927;28;20032;-67
2023/05/04 04:18:04;;;;;;;5.47;1.58;;;;;;;10.78;79.10;100116.34;5115092;28;20038;-71
2023/05/04 04:20:33;;;;;;;1.23;1.13;;;;;;;10.73;79.34;100125.69;5114671;28;20031;-70
2023/05/04 04:23:02;;;;;;;1.98;1.77;;;;;;;10.71;78.94;100123.97;5115181;28;20039;-71
2023/05/04 04:25:33;;;;;;;0.98;0.98;;;;;;;10.76;79.01;100118.03;5114811;28;20379;-70
2023/05/04 04:28:02;;;;;;;0.55;0.55;;;;;;;10.78;79.06;100121.47;5115204;28;20485;-69
2023/05/04 04:30:31;;;;;;;1.43;1.10;;;;;;;10.90;79.01;100124.91;5114754;28;20421;-71
2023/05/04 04:32:59;;;;;;;2.37;1.57;;;;;;;10.97;79.30;100129.19;5114539;28;20060;-70
2023/05/04 04:35:28;;;;;;;0.80;0.80;;;;;;;11.03;79.25;100131.78;5114290;28;20048;-68
2023/05/04 04:37:57;;;;;;;0.80;0.77;;;;;;;11.05;79.04;100130.97;5114358;28;20146;-68
2023/05/04 04:40:28;;;;;;;0.73;0.73;;;;;;;11.13;78.90;100128.44;5114444;28;20093;-69
2023/05/04 04:42:59;;;;;;;0.40;0.40;;;;;;;11.16;78.69;100133.53;5114348;28;20096;-67
2023/05/04 04:45:28;;;;;;;7.43;1.95;;;;;;;11.19;78.83;100128.44;5114234;28;20213;-69
2023/05/04 04:47:59;;;;;;;1.75;1.38;;;;;;;11.29;78.48;100125.09;5114235;28;20054;-69
2023/05/04 04:50:29;;;;;;;0.60;0.60;;;;;;;11.43;78.43;100133.66;5114246;28;20055;-69
2023/05/04 04:52:58;;;;;;;2.15;1.25;;;;;;;11.49;78.36;100123.47;5114472;28;20128;-69
2023/05/04 04:55:27;;;;;;;1.20;1.10;;;;;;;11.59;78.07;100125.16;5113972;28;20494;-65
2023/05/04 04:57:56;;;;;;;0.40;0.40;;;;;;;11.73;78.03;100130.34;5113849;28;20573;-68
2023/05/04 05:00:26;;;;;;;2.13;1.20;;;;;;;11.82;77.62;100133.78;5114347;28;20039;-68
2023/05/04 05:02:55;;;;;;;1.38;1.25;;;;;;;11.85;77.54;100123.53;5114019;28;20280;-67
2023/05/04 05:05:24;;;;;;;0.93;0.93;;;;;;;11.96;76.98;100133.78;5114057;28;20046;-67
2023/05/04 05:07:53;;;;;;;0.60;0.60;;;;;;;12.01;76.55;100129.53;5113917;28;20344;-65
2023/05/04 05:10:22;;;;;;;1.60;0.90;;;;;;;12.05;76.44;100129.53;5112775;28;20075;-67
2023/05/04 05:12:51;;;;;;;1.00;0.95;;;;;;;12.17;76.21;100130.38;5113638;28;20126;-69
2023/05/04 05:15:20;;;;;;;1.83;1.73;;;;;;;12.31;75.99;100124.41;5113863;28;20044;-67
2023/05/04 05:17:50;;;;;;;0.60;0.60;;;;;;;12.44;75.50;100127.81;5113799;28;20276;-68
2023/05/04 05:20:20;;;;;;;0.40;0.40;;;;;;;12.53;75.13;100131.22;5114270;28;20044;-68
2023/05/04 05:22:50;;;;;;;1.13;0.85;;;;;;;12.71;74.77;100127.78;5113903;28;20071;-66
2023/05/04 05:25:19;;;;;;;0.75;0.70;;;;;;;12.87;73.92;100126.88;5114150;28;20065;-70
2023/05/04 05:27:48;;;;;;;0.52;0.52;;;;;;;12.99;73.50;100136.22;5113588;28;20066;-66
2023/05/04 05:30:18;;;;;;;1.13;1.05;;;;;;;13.17;72.90;100134.47;5114093;28;20449;-65
2023/05/04 05:32:46;;;;;;;1.13;1.02;;;;;;;13.29;72.06;100139.56;5112920;28;20039;-69
2023/05/04 05:35:18;;;;;;;0.65;0.65;;;;;;;13.37;71.46;100137.81;5113728;28;20075;-65
2023/05/04 05:37:49;;;;;;;1.00;0.88;;;;;;;13.44;70.70;100143.75;5113938;28;20501;-68
2023/05/04 05:40:18;;;;;;;0.68;0.68;;;;;;;13.54;70.48;100144.56;5114083;28;20044;-69
2023/05/04 05:42:47;;;;;;;0.88;0.88;;;;;;;13.64;70.26;100151.34;5112763;28;20048;-71
2023/05/04 05:45:16;;;;;;;0.60;0.60;;;;;;;13.75;69.66;100144.47;5113713;28;20133;-66
2023/05/04 05:47:45;;;;;;;1.23;0.90;;;;;;;13.92;69.44;100155.44;5113582;28;20048;-66
2023/05/04 05:50:14;;;;;;;0.55;0.55;;;;;;;14.09;68.91;100145.91;5112608;28;20284;-69
2023/05/04 05:52:44;;;;;;;0.80;0.57;;;;;;;14.22;68.91;100144.13;5113531;28;20093;-69
2023/05/04 05:55:13;;;;;;;1.05;0.90;;;;;;;14.35;68.62;100136.31;5113578;28;20055;-68
2023/05/04 05:57:42;;;;;;;1.10;1.00;;;;;;;14.39;67.58;100142.31;5113150;28;20485;-67
2023/05/04 06:00:12;;;;;;;0.97;0.97;;;;;;;14.47;67.25;100136.22;5113420;28;20078;-67
2023/05/04 06:02:42;;;;;;;0.88;0.88;;;;;;;14.58;67.00;100126.72;5113717;28;20050;-68
2023/05/04 06:05:11;;;;;;;1.23;1.00;;;;;;;14.69;66.55;100131.72;5113362;28;20047;-66
2023/05/04 06:07:40;;;;;;;1.90;0.93;;;;;;;14.64;65.82;100144.63;5113365;28;20059;-69
2023/05/04 06:10:11;;;;;;;1.25;1.15;;;;;;;14.64;65.60;100136.91;5116947;28;20039;-67
2023/05/04 06:12:39;;;;;;;0.77;0.63;;;;;;;14.69;65.19;100137.72;5117174;28;20617;-64
2023/05/04 06:15:09;;;;;;;0.90;0.90;;;;;;;14.66;65.28;100142.06;5117309;28;20436;-64
2023/05/04 06:17:38;;;;;;;;;;;;;;;14.73;65.43;100133.41;5117420;28;20074;-65
2023/05/04 06:20:07;;;;;;;0.65;0.65;;;;;;;14.90;65.26;100138.38;5116975;28;20004;-64
2023/05/04 06:22:36;;;;;;;1.33;0.88;;;;;;;14.91;65.26;100132.34;5117012;28;20078;-65
2023/05/04 06:25:06;;;;;;;1.40;0.98;;;;;;;14.96;64.80;100130.59;5117208;28;20032;-63
2023/05/04 06:27:37;;;;;;;1.63;1.15;;;;;;;15.06;64.87;100137.31;5117146;28;20123;-68
2023/05/04 06:30:07;;;;;;;1.13;0.85;;;;;;;15.16;64.39;100133.78;5117657;28;20492;-67
2023/05/04 06:32:37;;;;;;;0.82;0.77;;;;;;;15.17;64.57;100136.31;5116864;28;20040;-65
2023/05/04 06:35:07;;;;;;;0.60;0.60;;;;;;;15.26;64.24;100130.25;5116924;28;20043;-69
2023/05/04 06:37:36;;;;;;;0.60;0.60;;;;;;;15.51;64.54;100136.78;5116926;28;20389;-67
2023/05/04 06:40:07;;;;;;;0.50;0.50;;;;;;;15.56;64.10;100140.16;5116598;28;20044;-71
2023/05/04 06:42:37;;;;;;;1.20;1.10;;;;;;;15.52;63.18;100137.63;5116896;28;20055;-66
2023/05/04 06:45:08;;;;;;;2.30;1.17;;;;;;;15.48;63.22;100134.25;5116546;28;20497;-66
2023/05/04 06:47:37;;;;;;;1.20;0.60;;;;;;;15.54;62.64;100135.91;5116398;28;20100;-67
2023/05/04 06:50:10;;;;;;;0.55;0.55;;;;;;;15.61;63.02;100142.66;5116318;28;20131;-68
2023/05/04 06:52:40;;;;;;;0.52;0.52;;;;;;;15.85;63.03;100143.16;5116220;27;20516;-67
2023/05/04 06:55:10;;;;;;;1.35;1.13;;;;;;;16.01;61.66;100142.06;5116373;28;20569;-69
2023/05/04 06:57:40;;;;;;;1.02;0.75;;;;;;;16.15;61.85;100135.84;5116300;28;20036;-67
2023/05/04 07:00:10;;;;;;;1.95;1.20;;;;;;;16.12;61.26;100141.03;5116953;28;20389;-67
2023/05/04 07:02:39;;;;;;;2.00;1.58;;;;;;;16.13;61.37;100145.31;5116287;27;20048;-67
2023/05/04 07:05:08;;;;;;;0.37;0.37;;;;;;;16.32;61.36;100144.13;5116596;28;20040;-68
2023/05/04 07:07:37;;;;;;;0.73;0.73;;;;;;;16.52;61.43;100144.69;5116512;27;20394;-70
2023/05/04 07:10:07;;;;;;;0.77;0.73;;;;;;;16.49;60.80;100142.13;5116608;28;20048;-65
2023/05/04 07:12:36;;;;;;;1.75;1.42;;;;;;;16.53;60.79;100141.25;5115875;28;20119;-66
2023/05/04 07:15:07;;;;;;;0.85;0.85;;;;;;;16.53;60.68;100144.66;5115919;28;20052;-68
2023/05/04 07:17:37;;;;;;;0.80;0.80;;;;;;;16.63;60.24;100142.75;5116031;28;20080;-64
2023/05/04 07:20:07;;;;;;;1.00;0.65;;;;;;;16.76;60.25;100152.00;5115812;28;20111;-64
2023/05/04 07:22:36;;;;;;;0.80;0.80;;;;;;;16.72;59.62;100158.09;5116459;28;20121;-67
2023/05/04 07:25:05;;;;;;;1.00;0.90;;;;;;;16.70;60.09;100157.22;5115654;28;20051;-69
2023/05/04 07:27:35;;;;;;;;;;;;;;;16.79;59.83;100151.09;5116113;28;20048;-69
2023/05/04 07:30:07;;;;;;;0.68;0.63;;;;;;;16.88;60.45;100150.91;5115787;28;19923;-68
2023/05/04 07:32:35;;;;;;;1.55;1.40;;;;;;;16.93;60.19;100149.09;5115929;28;20048;-67
2023/05/04 07:35:05;;;;;;;3.25;0.85;;;;;;;16.98;59.66;100153.28;5115799;28;20039;-67
2023/05/04 07:37:34;;;;;;;;;;;;;;;16.98;59.46;100148.13;5116356;28;20043;-68
2023/05/04 07:40:04;;;;;;;0.68;0.68;;;;;;;17.12;59.44;100151.28;5114555;28;19920;-67
2023/05/04 07:42:34;;;;;;;0.55;0.45;;;;;;;17.11;58.91;100154.75;5115932;28;20104;-65
2023/05/04 07:45:03;;;;;;;1.08;1.00;;;;;;;17.14;58.59;100152.09;5115645;28;20424;-65
2023/05/04 07:47:33;;;;;;;1.30;1.02;;;;;;;17.10;58.32;100142.75;5115225;27;20047;-69
2023/05/04 07:50:02;;;;;;;0.60;0.50;;;;;;;17.30;58.41;100138.00;5115370;28;20040;-64
2023/05/04 07:52:32;;;;;;;1.65;1.20;;;;;;;17.17;58.08;100144.31;5115235;28;20035;-66
2023/05/04 07:55:00;;;;;;;0.75;0.75;;;;;;;17.21;57.94;100135.63;5115181;28;20031;-66
2023/05/04 07:57:31;;;;;;;0.60;0.60;;;;;;;17.23;58.33;100144.19;5115288;28;20383;-67
2023/05/04 08:00:00;;;;;;;1.08;0.90;;;;;;;17.32;58.10;100136.25;5115179;28;20054;-69
2023/05/04 08:02:29;;;;;;;1.00;0.90;;;;;;;17.28;58.04;100134.63;5114881;28;20119;-68
2023/05/04 08:05:00;;;;;;;0.80;0.65;;;;;;;17.40;58.54;100142.09;5115101;28;20067;-68
2023/05/04 08:07:29;;;;;;;0.90;0.60;;;;;;;17.52;57.91;100140.16;5114932;28;20043;-67
2023/05/04 08:09:57;;;;;;;0.60;0.60;;;;;;;17.72;57.58;100143.16;5114804;27;20531;-66
2023/05/04 08:12:26;;;;;;;0.70;0.70;;;;;;;17.73;57.08;100139.72;5114310;28;20039;-67
2023/05/04 08:14:55;;;;;;;0.70;0.70;;;;;;;17.77;56.92;100139.63;5114499;28;20046;-69
2023/05/04 08:17:24;;;;;;;0.50;0.50;;;;;;;17.95;56.61;100141.75;5113394;28;20040;-66
2023/05/04 08:19:53;;;;;;;0.47;0.47;;;;;;;18.05;56.52;100132.91;5114696;28;20453;-66
2023/05/04 08:22:25;;;;;;;1.15;1.00;;;;;;;18.18;56.31;100136.06;5114661;28;20119;-65
2023/05/04 08:24:55;;;;;;;1.30;1.20;;;;;;;18.19;56.77;100127.41;5114610;28;20085;-68
2023/05/04 08:27:24;;;;;;;1.98;0.63;;;;;;;18.15;56.62;100137.84;5114847;28;20062;-66
2023/05/04 08:29:53;;;;;;;0.50;0.50;;;;;;;18.19;56.45;100137.75;5114623;28;20043;-64
2023/05/04 08:32:22;;;;;;;0.57;0.57;;;;;;;18.21;56.14;100143.72;5113833;28;20043;-65
2023/05/04 08:34:51;;;;;;;0.82;0.80;;;;;;;18.25;55.86;100137.59;5114451;28;20040;-66
2023/05/04 08:37:21;;;;;;;0.60;0.60;;;;;;;18.44;55.41;100140.56;5114274;28;20039;-66
2023/05/04 08:39:51;;;;;;;0.60;0.60;;;;;;;18.49;55.23;100139.63;5114467;28;20031;-65
2023/05/04 08:42:32;;;;;;;0.55;0.55;;;;;;;18.56;55.22;100146.31;5114525;28;20378;-66
2023/05/04 08:45:01;;;;;;;1.40;1.13;;;;;;;18.64;54.58;100149.53;5114314;28;20040;-65
2023/05/04 08:47:30;;;;;;;0.80;0.80;;;;;;;18.53;54.70;100145.53;5114240;28;20043;-66
2023/05/04 08:49:59;;;;;;;0.68;0.60;;;;;;;18.49;54.89;100144.78;5114813;28;20046;-67
2023/05/04 08:52:28;;;;;;;0.55;0.55;;;;;;;18.49;55.01;100149.97;5114572;28;20454;-66
2023/05/04 08:54:59;;;;;;;0.40;0.40;;;;;;;18.59;54.81;100151.44;5114002;28;20032;-65
2023/05/04 08:57:30;;;;;;;1.05;0.80;;;;;;;18.59;54.45;100141.09;5114141;28;20047;-65
2023/05/04 09:00:00;;;;;;;0.70;0.63;;;;;;;18.70;54.20;100139.06;5114285;28;20482;-65
2023/05/04 09:02:30;;;;;;;0.93;0.80;;;;;;;18.64;54.28;100133.19;5114407;28;20546;-66
2023/05/04 09:04:58;;;;;;;;;;;;;;;18.81;54.56;100127.56;5114367;28;20130;-66
2023/05/04 09:07:27;;;;;;;0.47;0.47;;;;;;;18.94;53.60;100137.53;5113982;28;19926;-65
2023/05/04 09:09:58;;;;;;;0.43;0.43;;;;;;;19.10;52.84;100143.97;5113911;28;20046;-65
2023/05/04 09:12:27;;;;;;;1.48;1.30;;;;;;;19.22;53.05;100135.00;5113725;28;20048;-66
2023/05/04 09:14:57;;;;;;;;;;;;;;;19.28;52.92;100138.31;5114256;28;20055;-66
2023/05/04 09:17:28;;;;;;;1.15;1.05;;;;;;;19.33;52.59;100135.56;5113811;28;19920;-65
2023/05/04 09:20:01;;;;;;;0.60;0.60;;;;;;;19.35;52.11;100136.38;5113817;28;20082;-68
2023/05/04 09:22:30;;;;;;;0.85;0.85;;;;;;;19.37;52.25;100126.84;5114152;28;20071;-68
2023/05/04 09:25:12;;;;;;;0.55;0.55;;;;;;;19.46;52.42;100136.09;5113855;28;20052;-67
2023/05/04 09:27:53;;;;;;;1.17;0.68;;;;;;;19.52;52.35;100131.59;5114175;28;20048;-64
2023/05/04 09:30:22;;;;;;;0.45;0.45;;;;;;;19.57;51.91;100134.88;5113718;28;20070;-67
2023/05/04 09:32:51;;;;;;;0.45;0.45;;;;;;;19.92;53.16;100123.44;5114081;28;20040;-66
2023/05/04 09:35:29;;;;;;;0.70;0.70;;;;;;;20.16;52.19;100126.97;5113952;28;20501;-67
2023/05/04 09:38:02;;;;;;;0.73;0.70;;;;;;;20.45;53.04;100124.28;5113794;28;20047;-68
2023/05/04 09:40:35;;;;;;;0.45;0.45;;;;;;;20.57;53.33;100118.69;5113810;28;20092;-68
2023/05/04 09:43:05;;;;;;;0.85;0.85;;;;;;;20.50;52.03;100119.81;5114101;28;20043;-67
2023/05/04 09:45:41;;;;;;;0.85;0.85;;;;;;;20.39;51.06;100127.97;5117718;28;20550;-67
2023/05/04 09:48:17;;;;;;;1.00;0.95;;;;;;;20.37;51.56;100121.13;5117684;28;20044;-69
2023/05/04 09:50:52;;;;;;;0.73;0.73;;;;;;;20.51;51.54;100111.13;5117867;28;20146;-64
2023/05/04 09:53:23;;;;;;;0.43;0.43;;;;;;;20.32;50.34;100117.84;5117907;28;20505;-66
2023/05/04 09:56:05;;;;;;;0.93;0.90;;;;;;;20.39;49.98;100117.59;5117908;28;20101;-64
2023/05/04 09:58:36;;;;;;;0.60;0.60;;;;;;;20.38;48.99;100120.22;5117380;28;20117;-68
2023/05/04 10:01:05;;;;;;;0.60;0.60;;;;;;;20.35;48.98;100120.31;5117421;28;20092;-64
2023/05/04 10:03:35;;;;;;;0.63;0.63;;;;;;;20.23;48.73;100115.56;5117667;28;20047;-69
2023/05/04 10:06:07;;;;;;;0.50;0.50;;;;;;;20.46;48.86;100107.84;5117410;28;20051;-64
2023/05/04 10:08:39;;;;;;;0.63;0.63;;;;;;;20.36;48.19;100111.66;5117238;28;20047;-66
2023/05/04 10:11:09;;;;;;;0.68;0.65;;;;;;;20.48;48.46;100106.03;5117168;28;20046;-67
2023/05/04 10:13:38;;;;;;;0.50;0.50;;;;;;;20.47;48.41;100104.34;5117066;28;20051;-66
2023/05/04 10:16:20;;;;;;;0.50;0.50;;;;;;;20.48;48.22;100106.91;5117163;28;20051;-63
2023/05/04 10:19:08;;;;;;;1.25;1.08;;;;;;;20.41;47.96;100101.97;5117493;28;20485;-63
2023/05/04 10:21:49;;;;;;;0.75;0.75;;;;;;;20.44;48.12;100097.50;5117249;28;20146;-66
2023/05/04 10:24:37;;;;;;;0.57;0.57;;;;;;;20.90;49.73;100099.34;5116960;28;20047;-69
2023/05/04 10:27:12;;;;;;;0.50;0.50;;;;;;;21.24;51.41;100094.63;5117034;28;20055;-70
2023/05/04 10:29:43;;;;;;;0.85;0.57;;;;;;;21.33;50.46;100083.91;5116831;28;20054;-68
2023/05/04 10:32:19;;;;;;;0.60;0.60;;;;;;;21.51;50.90;100091.91;5117189;28;20077;-68
2023/05/04 10:34:48;;;;;;;0.40;0.40;;;;;;;21.70;51.25;100082.47;5117074;28;20525;-66
2023/05/04 10:37:18;;;;;;;0.88;0.88;;;;;;;21.71;49.30;100079.84;5117013;28;20036;-66
2023/05/04 10:39:54;;;;;;;0.70;0.70;;;;;;;21.77;48.47;100081.31;5116813;28;20398;-68
2023/05/04 10:42:25;;;;;;;3.17;1.20;;;;;;;21.94;48.53;100081.53;5117299;28;20048;-68
2023/05/04 10:44:55;;;;;;;0.40;0.40;;;;;;;21.69;47.70;100081.63;5116876;28;20100;-69
2023/05/04 10:47:31;;;;;;;0.50;0.50;;;;;;;21.54;47.12;100084.00;5116460;27;20482;-68
2023/05/04 10:50:05;;;;;;;0.50;0.50;;;;;;;21.61;47.48;100075.03;5116826;28;20410;-68
2023/05/04 10:52:47;;;;;;;1.45;1.08;;;;;;;21.66;47.06;100070.53;5116456;28;20047;-66
2023/05/04 10:55:17;;;;;;;0.73;0.63;;;;;;;21.83;47.11;100078.50;5116046;28;20117;-69
2023/05/04 10:57:49;;;;;;;0.50;0.50;;;;;;;21.94;47.23;100076.31;5116727;28;20436;-65
2023/05/04 11:00:19;;;;;;;0.50;0.50;;;;;;;21.91;46.53;100071.25;5116102;28;20042;-66
2023/05/04 11:02:49;;;;;;;1.15;0.90;;;;;;;21.90;45.48;100061.78;5116245;28;20104;-66
2023/05/04 11:05:18;;;;;;;0.50;0.50;;;;;;;22.06;46.15;100056.78;5116321;28;20043;-66
2023/05/04 11:07:51;;;;;;;0.50;0.50;;;;;;;21.98;46.22;100057.94;5116190;28;20417;-66
2023/05/04 11:10:22;;;;;;;0.32;0.32;;;;;;;21.83;45.59;100052.50;5116356;28;20370;-67
2023/05/04 11:13:01;;;;;;;0.45;0.45;;;;;;;21.57;44.83;100055.31;5115785;28;20082;-65
2023/05/04 11:15:44;;;;;;;0.60;0.60;;;;;;;21.23;45.24;100054.03;5116046;28;20039;-66
2023/05/04 11:18:13;;;;;;;2.50;1.10;;;;;;;21.10;46.95;100050.19;5116226;28;20075;-68
2023/05/04 11:20:42;;;;;;;1.25;1.13;;;;;;;20.97;47.71;100054.09;5115951;28;20486;-67
2023/05/04 11:23:16;;;;;;;;;;;;;;;20.82;48.48;100044.28;5116463;28;20038;-68
2023/05/04 11:25:45;;;;;;;0.57;0.57;;;;;;;21.16;48.83;100043.91;5115449;28;19926;-66
2023/05/04 11:28:15;;;;;;;1.27;0.60;;;;;;;21.46;48.83;100036.69;5115700;28;20047;-66
2023/05/04 11:30:46;;;;;;;0.40;0.40;;;;;;;21.74;48.79;100042.47;5116193;28;20050;-68
2023/05/04 11:33:16;;;;;;;0.75;0.75;;;;;;;21.95;48.23;100031.25;5115668;28;20105;-66
2023/05/04 11:35:45;;;;;;;1.33;1.15;;;;;;;22.23;47.89;100031.75;5115611;28;20055;-68
2023/05/04 11:38:18;;;;;;;0.70;0.70;;;;;;;22.41;47.16;100025.75;5114487;28;20043;-67
2023/05/04 11:40:48;;;;;;;0.50;0.50;;;;;;;22.39;47.03;100027.59;5115448;28;20052;-66